Euskara    
Meteorología y climatología de Navarra
Datos de la estación - Meteo Navarra

Estación de Urbasa GN

Altitud 886 m.


Datos desde el 14/01/2021 hasta el 15/01/2021 en horario solar
Los datos son PROVISIONALES

Anterior Página 1 de 1 Siguiente Descargar: Formato para Excel 2000 o superior   Formato csv   Formato para OpenOffice Calc
Fecha Temperatura Humedad relativa Radiación global Insolación Precipitación Vel. viento 10 m Vel. viento 10 m Dir. viento 10 m
°C % W/m² s l/m² m/s km/h °
14/01/2021 0:00 1.3 94 0.0 0 0.0 1.4 4.9 336
14/01/2021 0:10 1.3 94 0.0 0 0.0 0.9 3.2 305
14/01/2021 0:20 1.4 94 0.0 0 0.0 1.6 5.8 336
14/01/2021 0:30 1.4 93 0.0 0 0.0 1.5 5.5 323
14/01/2021 0:40 1.4 93 0.0 0 0.0 1.4 4.9 327
14/01/2021 0:50 1.3 93 0.0 0 0.0 1.2 4.3 332
14/01/2021 1:00 1.5 93 0.0 0 0.0 1.4 4.9 332
14/01/2021 1:10 1.3 93 0.0 0 0.0 1.2 4.2 337
14/01/2021 1:20 1.4 94 0.0 0 0.0 1.5 5.4 345
14/01/2021 1:30 1.5 94 0.0 0 0.0 2.0 7.1 327
14/01/2021 1:40 1.4 94 0.0 0 0.0 1.7 6.1 332
14/01/2021 1:50 1.5 94 0.0 0 0.0 2.6 9.4 326
14/01/2021 2:00 1.2 94 0.0 0 0.0 1.9 6.7 338
14/01/2021 2:10 1.1 95 0.0 0 0.0 1.3 4.7 330
14/01/2021 2:20 1.0 95 0.0 0 0.0 1.8 6.3 337
14/01/2021 2:30 1.0 96 0.0 0 0.0 1.6 5.6 343
14/01/2021 2:40 1.2 96 0.0 0 0.0 1.5 5.4 325
14/01/2021 2:50 1.1 95 0.0 0 0.0 1.5 5.4 324
14/01/2021 3:00 1.1 95 0.0 0 0.0 1.4 5.1 337
14/01/2021 3:10 0.9 95 0.0 0 0.0 1.7 6.2 324
14/01/2021 3:20 1.0 95 0.0 0 0.0 1.9 6.9 339
14/01/2021 3:30 1.0 95 0.0 0 0.0 2.4 8.5 332
14/01/2021 3:40 0.9 95 0.0 0 0.0 2.2 7.8 329
14/01/2021 3:50 0.9 95 0.0 0 0.0 2.2 7.8 329
14/01/2021 4:00 1.0 95 0.0 0 0.0 1.7 6.3 325
14/01/2021 4:10 0.8 95 0.0 0 0.0 1.8 6.6 325
14/01/2021 4:20 0.8 95 0.0 0 0.0 2.1 7.4 326
14/01/2021 4:30 0.7 96 0.0 0 0.0 2.1 7.7 327
14/01/2021 4:40 0.7 96 0.0 0 0.0 2.6 9.4 333
14/01/2021 4:50 0.7 96 0.0 0 0.0 2.2 7.8 328
14/01/2021 5:00 0.6 96 0.0 0 0.0 2.4 8.5 323
14/01/2021 5:10 0.9 96 0.0 0 0.0 2.1 7.7 329
14/01/2021 5:20 1.0 96 0.0 0 0.0 2.4 8.5 329
14/01/2021 5:30 1.0 95 0.0 0 0.0 2.5 9.0 321
14/01/2021 5:40 0.9 95 0.0 0 0.0 1.9 6.7 317
14/01/2021 5:50 0.8 95 0.0 0 0.0 1.6 5.6 328
14/01/2021 6:00 0.9 95 0.0 0 0.0 1.6 5.7 320
14/01/2021 6:10 0.9 95 0.0 0 0.0 1.5 5.3 318
14/01/2021 6:20 1.0 95 0.0 0 0.0 1.8 6.4 321
14/01/2021 6:30 0.7 95 0.0 0 0.0 1.5 5.4 324
14/01/2021 6:40 0.9 95 0.0 0 0.0 1.2 4.3 326
14/01/2021 6:50 1.0 95 0.0 0 0.0 1.4 5.1 323
14/01/2021 7:00 1.0 95 0.0 0 0.0 2.0 7.2 319
14/01/2021 7:10 1.0 94 0.0 0 0.0 2.4 8.5 312
14/01/2021 7:20 0.8 95 0.0 0 0.0 1.6 5.6 318
14/01/2021 7:30 0.8 95 0.0 0 0.0 1.3 4.8 314
14/01/2021 7:40 0.7 95 0.0 0 0.0 1.8 6.5 315
14/01/2021 7:50 0.6 96 0.0 0 0.0 1.6 5.9 321
14/01/2021 8:00 0.6 96 0.0 0 0.0 1.9 6.8 326
14/01/2021 8:10 0.7 96 0.0 0 0.0 2.4 8.5 322
14/01/2021 8:20 0.7 96 3.6 0 0.0 2.2 7.9 314
14/01/2021 8:30 0.8 96 21.8 0 0.0 2.3 8.1 331
14/01/2021 8:40 0.7 96 24.3 0 0.0 2.3 8.4 311
14/01/2021 8:50 0.7 96 37.9 0 0.0 2.4 8.7 319
14/01/2021 9:00 0.7 96 45.3 0 0.0 2.5 8.8 321
14/01/2021 9:10 0.9 96 52.0 0 0.0 2.2 7.9 334
14/01/2021 9:20 0.9 95 61.8 0 0.0 2.0 7.2 319
14/01/2021 9:30 0.9 95 70.7 0 0.0 1.9 6.9 340
14/01/2021 9:40 1.1 95 78.1 0 0.0 1.9 6.9 333
14/01/2021 9:50 1.1 95 81.5 0 0.0 1.9 6.9 338
14/01/2021 10:00 1.3 94 86.4 0 0.0 2.0 7.3 335
14/01/2021 10:10 1.5 94 101.5 0 0.1 2.4 8.5 332
14/01/2021 10:20 1.6 93 132.9 0 0.1 2.3 8.2 331
14/01/2021 10:30 1.6 92 151.9 88 0.1 1.8 6.3 335
14/01/2021 10:40 1.5 93 185.2 76 0.0 2.3 8.3 337
14/01/2021 10:50 1.7 92 203.5 290 0.0 2.3 8.3 333
14/01/2021 11:00 1.8 91 211.5 230 0.0 2.2 8.0 330
14/01/2021 11:10 1.6 92 245.5 496 0.0 2.0 7.3 326
14/01/2021 11:20 2.1 91 325.2 600 0.0 2.0 7.3 321
14/01/2021 11:30 2.3 89 282.3 590 0.0 2.2 8.1 331
14/01/2021 11:40 2.3 88 304.7 600 0.0 1.9 6.9 336
14/01/2021 11:50 2.5 88 420.0 600 0.0 2.3 8.1 338
14/01/2021 12:00 2.8 86 544.1 572 0.0 2.4 8.5 332
14/01/2021 12:10 3.3 83 410.0 592 0.0 2.4 8.7 337
14/01/2021 12:20 3.3 83 397.2 470 0.0 1.7 6.0 340
14/01/2021 12:30 3.3 82 520.0 600 0.0 2.2 8.0 331
14/01/2021 12:40 3.3 81 472.8 576 0.0 2.2 8.0 333
14/01/2021 12:50 3.3 81 493.0 600 0.0 2.2 8.0 322
14/01/2021 13:00 3.7 80 489.1 600 0.0 1.9 6.8 334
14/01/2021 13:10 3.9 79 406.6 600 0.0 1.9 6.9 339
14/01/2021 13:20 4.0 78 233.7 414 0.0 1.3 4.5 337
14/01/2021 13:30 3.7 79 204.2 0 0.0 1.8 6.4 316
14/01/2021 13:40 3.6 80 157.9 0 0.0 1.4 4.9 294
14/01/2021 13:50 3.3 83 126.5 0 0.0 2.0 7.0 283
14/01/2021 14:00 3.2 84 114.7 0 0.0 1.3 4.8 290
14/01/2021 14:10 3.2 85 110.2 0 0.0 1.6 5.7 301
14/01/2021 14:20 3.0 86 112.6 0 0.0 1.6 5.7 354
14/01/2021 14:30 2.7 87 90.8 0 0.0 1.3 4.6 330
14/01/2021 14:40 2.5 89 84.0 0 0.0 1.3 4.6 5
14/01/2021 14:50 2.3 91 66.2 0 0.0 1.2 4.4 17
14/01/2021 15:00 2.4 92 64.3 0 0.0 0.8 2.8 5
14/01/2021 15:10 2.3 91 63.1 0 0.0 0.8 3.0 354
14/01/2021 15:20 2.3 91 40.3 0 0.0 1.0 3.6 17
14/01/2021 15:30 2.0 93 28.6 0 0.0 0.7 2.6 18
14/01/2021 15:40 2.0 95 24.4 0 0.0 1.4 4.9 17
14/01/2021 15:50 2.0 96 15.5 0 0.1 1.0 3.7 336
14/01/2021 16:00 1.9 96 9.7 0 0.0 0.6 2.0 85
14/01/2021 16:10 1.9 96 12.5 0 0.0 1.0 3.5 89
14/01/2021 16:20 2.1 97 0.0 0 0.0 1.4 4.9 51
14/01/2021 16:30 2.1 97 0.0 0 0.1 1.5 5.5 74
14/01/2021 16:40 2.3 97 0.0 0 0.0 1.2 4.2 50
14/01/2021 16:50 2.8 98 0.0 0 0.0 1.4 4.9 3
14/01/2021 17:00 2.7 98 0.0 0 0.0 1.6 5.6 352
14/01/2021 17:10 2.7 98 0.0 0 0.0 1.0 3.5 95
14/01/2021 17:20 2.7 98 0.0 0 0.1 1.0 3.6 19
14/01/2021 17:30 2.9 98 0.0 0 0.1 1.5 5.3 38
14/01/2021 17:40 2.9 98 0.0 0 0.1 1.1 4.1 65
14/01/2021 17:50 3.0 98 0.0 0 0.0 1.2 4.1 328
14/01/2021 18:00 2.9 98 0.0 0 0.1 1.1 3.9 26
14/01/2021 18:10 3.3 98 0.0 0 0.0 1.2 4.2 307
14/01/2021 18:20 3.4 98 0.0 0 0.0 0.9 3.2 63
14/01/2021 18:30 3.3 98 0.0 0 0.1 1.5 5.5 15
14/01/2021 18:40 3.3 98 0.0 0 0.1 1.5 5.5 355
14/01/2021 18:50 3.5 98 0.0 0 0.1 2.1 7.4 327
14/01/2021 19:00 3.6 98 0.0 0 0.0 1.5 5.4 24
14/01/2021 19:10 3.7 98 0.0 0 0.1 1.6 5.7 4
14/01/2021 19:20 3.7 98 0.0 0 0.0 1.8 6.3 345
14/01/2021 19:30 3.7 98 0.0 0 0.2 1.7 6.1 340
14/01/2021 19:40 3.7 98 0.0 0 0.2 1.0 3.6 354
14/01/2021 19:50 3.7 98 0.0 0 0.1 1.7 5.9 297
14/01/2021 20:00 3.8 98 0.0 0 0.0 1.3 4.7 329
14/01/2021 20:10 3.7 98 0.0 0 0.1 2.0 7.2 287
14/01/2021 20:20 4.0 98 0.0 0 0.0 2.9 10.4 304
14/01/2021 20:30 3.9 98 0.0 0 0.1 1.8 6.5 276
14/01/2021 20:40 3.7 98 0.0 0 0.4 1.4 5.1 310
14/01/2021 20:50 3.5 98 0.0 0 0.2 1.9 6.9 344
14/01/2021 21:00 3.2 98 0.0 0 0.2 1.2 4.5 8
14/01/2021 21:10 3.2 98 0.0 0 0.3 1.7 6.3 350
14/01/2021 21:20 3.3 98 0.0 0 0.4 1.6 5.8 292
14/01/2021 21:30 3.4 98 0.0 0 0.3 1.8 6.3 339
14/01/2021 21:40 3.4 98 0.0 0 0.1 1.4 5.0 258
14/01/2021 21:50 3.6 98 0.0 0 0.0 2.9 10.4 285
14/01/2021 22:00 3.7 98 0.0 0 0.1 1.5 5.4 301
14/01/2021 22:10 3.6 98 0.0 0 0.0 2.9 10.4 319
14/01/2021 22:20 3.6 97 0.0 0 0.1 1.7 6.2 353
14/01/2021 22:30 3.4 97 0.0 0 0.0 3.0 10.7 308
14/01/2021 22:40 3.4 97 0.0 0 0.1 1.3 4.8 290
14/01/2021 22:50 3.4 97 0.0 0 0.0 2.9 10.3 344
14/01/2021 23:00 3.5 97 0.0 0 0.1 3.7 13.3 345
14/01/2021 23:10 3.3 97 0.0 0 0.0 2.5 9.0 321
14/01/2021 23:20 3.2 97 0.0 0 0.0 3.1 11.1 347
14/01/2021 23:30 3.2 96 0.0 0 0.0 3.2 11.5 325
14/01/2021 23:40 3.1 95 0.0 0 0.0 2.6 9.2 342
14/01/2021 23:50 3.0 94 0.0 0 0.0 2.0 7.1 349
Anterior Página 1 de 1 Siguiente

NOTA: Tipo de datos según el color:
   - Valores diarios o 10 minutos correctos
   - Valores diarios calculados a partir de un número de datos 10 minutos menor que 144 y mayor que 120, o de un número de datos semihorarios menor que 48 y mayor que 40 (caso de las estaciones de INTIA Y Ministerio)
   - Valores diez minutos estimados


Contacto        Enlaces        Aviso legal